Chhatrapati Shivaji International Airport
VABB : now visible

Airfield :











YOU CAN JOIN US ON...

 
LOGIN :

Register | Disclaimer

   EN    FR    IT 

 









Legend :    VFR   Marginal VFR   IFR   Intensive IFR   Very Intensive IFR
Visi :
Ceiling :
>= 8 km
>= 3000ft
5 to 8 km
1000 to 3000 ft
1500m to 5 km
500 to 1000 ft
800 to 1500m
200 to 500 ft
< 800m
< 200 ft
Symbols :   Thunderstorms  Fog  Heavy snow  Heavy precipitations  Wind > 20 kt






- Airport Elevation : 37 ft
- IATA code : BOM


VABB - Chhatrapati Shivaji International

CURRENT METAR :
  • 011500Z 31005KT 5000 HZ NSC 29/22 Q1010 NOSIG

EXPIRED METARs :
  • 011430Z 31006KT 5000 HZ NSC 29/22 Q1009 NOSIG
  • 011400Z 31006KT 5000 HZ NSC 30/22 Q1009 NOSIG
  • 011330Z 31009KT 5000 HZ NSC 30/21 Q1009 NOSIG
  • 011300Z 31010KT 5000 FU NSC 31/20 Q1009 NOSIG
  • 011230Z 30011KT 5000 FU NSC 31/21 Q1008 NOSIG

TAF TAF VABB
Valid from the 01 at 09:00 until the 01 at 18:00 UTC


010800Z 0109/0118 30010KT 5000 FU FEW020
BECMG 0115/0117 34005KT 4000 FU FEW100



MET'MAP, your aeronautical weather chart ! - Copyright ORBIFLY December 2007 - Disclaimer

ORBIFLY MET'MAP TEAM :

Programming & Development : Alexandra Zaïnal
Concept & original design : Baudouin d'Aumeries
Assistance for programming : Marc-Olivier Méhu
Technical & hardware support : Manuel Goepfert

Contact : metmap@orbifly.com




SOURCES & CREDITS :

   NOAA       Earth
Advisory